Pagrindinis puslapis
METAR-TAF:

METAR-TAF

Oro uostai :

Mineralnye Vody, Rusija

platuma: 44-14N, ilguma: 043-04E, Aukštis: 314 m

Dabartinis oras

Ataskaita buvo paskelbta 33 minutes, ne 23:30 UTC
Vėjas 6 kt iš Šiaurės Vakarų
Temperatūra 9°C
Drėgmė 34%
Slėgis 1023 hPa
Matomumas 10 km arba daugiau

METAR: URMM 052330Z 31003MPS 9999 NSC 09/M06 Q1023 R12/090070 NOSIG RMK QFE739/0985

Laikas: 04:03 (00:03 UTC)

Prognozė

Ataskaita buvo paskelbta 1 valandą ir 3 minutes, ne 23:00 UTC
Prognozė galioja nuo 06 metu 00 UTC su 06 metu 24 UTC
Vėjas 6 kt iš Vakarų/Šiaurės Vakarų su gūsio iki 16 kt
Matomumas 10 km arba daugiau
Su prošvaistėmis ne aukštis 2000 ft
Laikinai
nuo 06 metu 00 UTC su 06 metu 03 UTC
Matomumas: 6000 m
Su prošvaistėmis ne aukštis 1600 ft
Su prošvaistėmis ne aukštis 2000 ft, Liūtiniai kamuoliniai debesys.
lietus
Laikinai
nuo 06 metu 03 UTC su 06 metu 18 UTC
Vėjas 14 kt iš Šiaurės Vakarų su gūsio iki 29 kt

TAF: URMM 052300Z 0600/0624 29003G08MPS 9999 BKN020 TX12/0612Z TN04/0603Z TEMPO 0600/0603 6000 -SHRA BKN016 BKN020CB TEMPO 0603/0618 32007G15MPS

Orai ataskaitas ir orų prognozės (METAR, TAF).

turimą stotys yra geltonos ir raudonos taškus žemėlapyje.

Perkelti pele per norėdami pamatyti stoties vardą.

Tada spustelėkite, norėdami matyti oro stebėjimo ir prognozės.

Norėdami pakeisti žemėlapį: spustelėkite ant žalios mygtukų su juodo kryžiaus žemyn,; žalią mygtuką su brūkšneliu, jei norite nutolinti; arba žalių rodyklių gretimoms žemėlapius.


METAR-TAF: